Bedford, Ohio
Current Conditions -  °F | °C
As of 9:17 AM on Sunday 25 Jan 2015 (Local Time) from KBKL Reporting Station
Moderate Snow Moderate Snow  
Wind Chill: 14°   Ceiling: 800
Heat Index: 27°   Visibility: 2.5mi
Dew Point: 24°   Wind: 18mph
Humidity: 89%   Direction: 30°NNE
Pressure: 29.83"   Gusts: 25mph
Location:  41.4°N, 81.54°W
Report Text: KBKL 251417Z 03016G22KT 2 1/2SM SN BR BKN008 OVC011 M03/M04 A2983 RMK AO2 CIG 005V009 P0000 T10281044
Loading
Personal Weather Stations






























Interactive Weather Map New forecast layout! Learn more

10-Day Weather Forecast

Advertisements
Track Severe Weather on mobile